Time;durP1;ratioP1;P1;durP2;ratioP2;P2;SDS_P1;SDS_P2;PMS_P1;PMS_P2;Temp;Humidity;BMP_temperature;BMP_pressure;BME280_temperature;BME280_humidity;BME280_pressure;Samples;Min_cycle;Max_cycle;Signal;HPM_P1;HPM_P2
2021/07/29 00:00:43;;;;;;;4.60;2.38;;;21.10;63.40;;;;;;5028047;28;20096;-71
2021/07/29 00:03:09;;;;;;;4.13;2.85;;;21.10;63.40;;;;;;5025302;28;20108;-70
2021/07/29 00:05:37;;;;;;;2.40;2.15;;;21.10;63.90;;;;;;5029531;28;20026;-71
2021/07/29 00:08:03;;;;;;;6.97;2.78;;;21.10;63.90;;;;;;5030368;28;20479;-71
2021/07/29 00:10:29;;;;;;;6.15;2.90;;;21.10;63.70;;;;;;5031795;28;20030;-70
2021/07/29 00:12:56;;;;;;;4.25;2.15;;;21.00;63.60;;;;;;5020558;28;20018;-70
2021/07/29 00:15:22;;;;;;;3.30;2.55;;;21.00;63.70;;;;;;5027649;28;20052;-70
2021/07/29 00:20:22;;;;;;;3.20;2.00;;;21.00;63.40;;;;;;5011511;28;20066;-70
2021/07/29 00:22:50;;;;;;;2.65;2.10;;;21.00;63.50;;;;;;5020487;28;20048;-70
2021/07/29 00:25:16;;;;;;;2.88;2.05;;;20.90;63.50;;;;;;5031051;28;20037;-70
2021/07/29 00:27:43;;;;;;;2.45;2.05;;;20.90;63.40;;;;;;5029295;28;20036;-70
2021/07/29 00:30:10;;;;;;;5.00;2.70;;;20.90;63.60;;;;;;5029238;28;20057;-70
2021/07/29 00:32:36;;;;;;;2.85;2.30;;;20.80;63.80;;;;;;5015280;28;20178;-71
2021/07/29 00:35:08;;;;;;;2.95;2.35;;;20.80;64.00;;;;;;5027627;28;20064;-70
2021/07/29 00:37:35;;;;;;;3.70;2.38;;;20.80;64.10;;;;;;5030170;28;20021;-70
2021/07/29 00:40:02;;;;;;;2.60;2.10;;;20.80;64.00;;;;;;5022471;28;20488;-70
2021/07/29 00:42:30;;;;;;;3.17;2.58;;;20.80;64.00;;;;;;5019476;28;20037;-70
2021/07/29 00:44:56;;;;;;;3.25;2.30;;;20.70;64.00;;;;;;5024951;28;20080;-70
2021/07/29 00:47:22;;;;;;;5.93;2.72;;;20.70;64.10;;;;;;5028779;28;20442;-70
2021/07/29 00:49:49;;;;;;;3.45;2.08;;;20.70;64.10;;;;;;5029280;28;20471;-70
2021/07/29 00:52:19;;;;;;;3.55;2.55;;;20.60;64.10;;;;;;5030632;28;20032;-70
2021/07/29 00:54:45;;;;;;;3.20;2.45;;;20.60;64.70;;;;;;5027064;28;20014;-70
2021/07/29 00:57:11;;;;;;;7.60;2.30;;;20.60;64.60;;;;;;5022947;28;20022;-70
2021/07/29 00:59:38;;;;;;;4.75;2.30;;;20.60;64.50;;;;;;5030133;28;20043;-70
2021/07/29 01:02:04;;;;;;;4.15;2.00;;;20.60;64.40;;;;;;5018219;28;20036;-70
2021/07/29 01:04:30;;;;;;;3.13;2.30;;;20.60;64.40;;;;;;5015187;28;20105;-70
2021/07/29 01:06:56;;;;;;;6.47;2.75;;;20.60;64.40;;;;;;5032733;28;20033;-70
2021/07/29 01:09:22;;;;;;;3.75;2.60;;;20.50;64.40;;;;;;5033010;28;20515;-70
2021/07/29 01:11:48;;;;;;;2.80;2.40;;;20.50;64.50;;;;;;5031265;28;20034;-70
2021/07/29 01:14:14;;;;;;;4.72;2.80;;;20.50;64.40;;;;;;5014023;28;20029;-70
2021/07/29 01:16:40;;;;;;;3.63;2.28;;;20.40;64.40;;;;;;5030991;28;20108;-70
2021/07/29 01:19:07;;;;;;;3.10;2.30;;;20.40;64.60;;;;;;5033827;28;20100;-70
2021/07/29 01:21:33;;;;;;;3.47;2.45;;;20.40;65.00;;;;;;5040847;28;20076;-70
2021/07/29 01:23:59;;;;;;;4.30;2.38;;;20.40;66.00;;;;;;5026175;28;20032;-70
2021/07/29 01:26:29;;;;;;;4.38;2.72;;;20.40;65.60;;;;;;5033688;28;20025;-70
2021/07/29 01:28:56;;;;;;;3.00;2.28;;;20.40;65.60;;;;;;5033637;28;20040;-70
2021/07/29 01:31:22;;;;;;;2.45;2.22;;;20.40;65.50;;;;;;5033031;28;20053;-70
2021/07/29 01:33:48;;;;;;;2.47;2.00;;;20.30;65.20;;;;;;5033345;28;20025;-70
2021/07/29 01:36:14;;;;;;;9.95;2.28;;;20.30;65.30;;;;;;5018179;28;20030;-70
2021/07/29 01:38:40;;;;;;;2.45;2.13;;;20.30;65.30;;;;;;5013938;28;20026;-70
2021/07/29 01:41:05;;;;;;;6.28;3.10;;;20.30;65.50;;;;;;5022461;28;20029;-70
2021/07/29 01:43:32;;;;;;;3.40;2.72;;;20.20;66.00;;;;;;5033581;28;20498;-70
2021/07/29 01:45:59;;;;;;;3.60;2.33;;;20.20;66.50;;;;;;5022310;28;20100;-71
2021/07/29 01:48:25;;;;;;;3.53;2.55;;;20.20;66.20;;;;;;5030687;28;20058;-70
2021/07/29 01:50:51;;;;;;;3.33;2.70;;;20.20;66.30;;;;;;5013317;28;20037;-70
2021/07/29 01:53:17;;;;;;;2.33;2.13;;;20.20;66.10;;;;;;5013332;28;20131;-69
2021/07/29 01:55:47;;;;;;;3.42;2.25;;;20.20;65.90;;;;;;5022447;28;20029;-70
2021/07/29 01:58:14;;;;;;;2.53;2.20;;;20.20;65.90;;;;;;5032262;28;20376;-70
2021/07/29 02:00:43;;;;;;;3.47;2.25;;;20.10;65.70;;;;;;5029115;28;20021;-70
2021/07/29 02:03:09;;;;;;;4.45;2.58;;;20.10;65.80;;;;;;5032342;28;20048;-70
2021/07/29 02:05:35;;;;;;;2.55;2.05;;;20.10;65.80;;;;;;5031347;28;20059;-70
2021/07/29 02:08:01;;;;;;;2.92;2.40;;;20.10;65.80;;;;;;5032602;28;20439;-70
2021/07/29 02:10:27;;;;;;;4.10;2.58;;;20.10;65.70;;;;;;5031116;28;20022;-70
2021/07/29 02:12:54;;;;;;;4.43;2.38;;;20.10;65.80;;;;;;5031483;28;20494;-70
2021/07/29 02:15:20;;;;;;;3.55;2.33;;;20.10;65.80;;;;;;5013969;28;20033;-70
2021/07/29 02:17:46;;;;;;;2.50;2.10;;;20.00;65.70;;;;;;5015295;28;20101;-70
2021/07/29 02:20:13;;;;;;;5.82;2.20;;;20.00;65.70;;;;;;5016800;28;20060;-70
2021/07/29 02:22:39;;;;;;;4.20;2.38;;;20.00;65.80;;;;;;5012943;28;20049;-70
2021/07/29 02:25:05;;;;;;;2.67;2.25;;;20.00;65.90;;;;;;5013977;28;20487;-70
2021/07/29 02:27:32;;;;;;;3.33;2.53;;;20.00;66.10;;;;;;5032623;28;20037;-70
2021/07/29 02:29:58;;;;;;;3.08;2.17;;;20.00;66.10;;;;;;5032005;28;20053;-70
2021/07/29 02:32:24;;;;;;;3.17;1.90;;;20.00;66.10;;;;;;5013661;28;20029;-70
2021/07/29 02:34:54;;;;;;;3.53;2.50;;;19.90;66.70;;;;;;5012914;28;20487;-70
2021/07/29 02:37:23;;;;;;;3.00;2.47;;;19.90;66.00;;;;;;5030016;28;20032;-70
2021/07/29 02:39:49;;;;;;;4.22;2.58;;;19.90;66.30;;;;;;5020356;28;20494;-70
2021/07/29 02:42:16;;;;;;;4.93;3.10;;;19.90;66.20;;;;;;5012586;28;20033;-71
2021/07/29 02:44:42;;;;;;;3.30;2.45;;;19.90;66.60;;;;;;5012788;28;20041;-70
2021/07/29 02:47:08;;;;;;;2.80;2.50;;;19.90;66.70;;;;;;5031126;28;20029;-70
2021/07/29 02:49:35;;;;;;;5.53;2.55;;;19.90;66.70;;;;;;5031272;28;20034;-70
2021/07/29 02:52:01;;;;;;;2.97;2.38;;;19.90;66.70;;;;;;5032000;28;20026;-70
2021/07/29 02:54:26;;;;;;;3.30;2.58;;;19.90;66.60;;;;;;5036228;28;20096;-70
2021/07/29 02:56:52;;;;;;;3.95;2.83;;;19.90;66.60;;;;;;5017562;28;20088;-70
2021/07/29 02:59:18;;;;;;;2.97;2.42;;;19.90;66.80;;;;;;5013243;28;20092;-70
2021/07/29 03:01:44;;;;;;;4.18;2.80;;;19.90;66.70;;;;;;5024413;28;20470;-70
2021/07/29 03:04:09;;;;;;;4.18;2.80;;;19.90;66.60;;;;;;5025241;28;20084;-70
2021/07/29 03:06:35;;;;;;;3.58;2.97;;;19.90;66.70;;;;;;5026381;28;20101;-70
2021/07/29 03:09:01;;;;;;;4.45;3.15;;;19.90;66.70;;;;;;5032896;28;20538;-70
2021/07/29 03:11:28;;;;;;;2.95;2.40;;;19.90;66.80;;;;;;5032761;28;20064;-70
2021/07/29 03:13:54;;;;;;;2.90;2.33;;;19.90;66.70;;;;;;5032720;28;20045;-71
2021/07/29 03:16:20;;;;;;;6.80;2.25;;;19.90;66.60;;;;;;5023667;28;20026;-70
2021/07/29 03:18:46;;;;;;;5.18;3.55;;;19.90;66.60;;;;;;5016007;28;20014;-70
2021/07/29 03:21:12;;;;;;;4.85;3.45;;;19.90;66.60;;;;;;5031285;28;20033;-70
2021/07/29 03:23:37;;;;;;;3.50;2.92;;;19.90;66.80;;;;;;5032121;28;20021;-70
2021/07/29 03:26:04;;;;;;;6.75;2.95;;;19.80;66.90;;;;;;5023455;28;20403;-71
2021/07/29 03:28:30;;;;;;;4.47;3.45;;;19.80;66.80;;;;;;5012529;28;20041;-70
2021/07/29 03:30:56;;;;;;;5.95;3.05;;;19.80;67.00;;;;;;5012260;28;20041;-71
2021/07/29 03:33:24;;;;;;;3.85;2.63;;;19.80;67.10;;;;;;5012582;28;20033;-70
2021/07/29 03:35:51;;;;;;;3.90;2.83;;;19.80;67.10;;;;;;5018675;28;20136;-70
2021/07/29 03:38:18;;;;;;;6.53;3.00;;;19.80;67.20;;;;;;5032021;28;20049;-70
2021/07/29 03:40:44;;;;;;;8.45;3.63;;;19.80;67.20;;;;;;5032001;28;20128;-71
2021/07/29 03:43:10;;;;;;;5.88;3.05;;;19.80;67.10;;;;;;5031786;28;20383;-70
2021/07/29 03:45:40;;;;;;;4.05;3.28;;;19.80;67.30;;;;;;5027752;28;20024;-70
2021/07/29 03:48:06;;;;;;;6.80;3.30;;;19.80;67.10;;;;;;5031432;28;20487;-70
2021/07/29 03:50:32;;;;;;;5.00;3.17;;;19.80;67.30;;;;;;5014025;28;20029;-70
2021/07/29 03:52:58;;;;;;;6.07;4.07;;;19.70;67.50;;;;;;5018874;28;20102;-70
2021/07/29 03:55:24;;;;;;;7.18;3.97;;;19.80;67.70;;;;;;5026223;28;20022;-70
2021/07/29 03:57:50;;;;;;;8.60;4.03;;;19.70;67.60;;;;;;5034545;28;20021;-71
2021/07/29 04:00:16;;;;;;;6.90;3.85;;;19.80;67.70;;;;;;5028513;28;20029;-70
2021/07/29 04:02:42;;;;;;;8.45;3.80;;;19.80;68.50;;;;;;5014629;28;20029;-71
2021/07/29 04:05:09;;;;;;;6.03;3.60;;;19.80;67.70;;;;;;5030999;28;20072;-70
2021/07/29 04:07:35;;;;;;;3.60;3.17;;;19.70;67.60;;;;;;5011595;28;20026;-70
2021/07/29 04:10:01;;;;;;;7.80;3.80;;;19.80;67.70;;;;;;5011926;28;20030;-71
2021/07/29 04:12:27;;;;;;;9.48;3.83;;;19.80;68.00;;;;;;5012054;28;20026;-70
2021/07/29 04:14:52;;;;;;;4.40;3.60;;;19.80;68.10;;;;;;5012066;28;20040;-70
2021/07/29 04:17:18;;;;;;;6.00;4.00;;;19.80;68.20;;;;;;5028715;28;20033;-70
2021/07/29 04:19:45;;;;;;;8.68;3.22;;;19.90;68.20;;;;;;5023183;28;20093;-70
2021/07/29 04:22:11;;;;;;;6.05;3.17;;;19.90;68.20;;;;;;5011851;28;20583;-71
2021/07/29 04:24:38;;;;;;;7.07;3.65;;;19.90;68.20;;;;;;5024410;28;20033;-70
2021/07/29 04:27:04;;;;;;;5.95;4.00;;;20.00;68.20;;;;;;5025195;28;20041;-70
2021/07/29 04:29:34;;;;;;;9.07;4.43;;;20.00;68.30;;;;;;5031604;28;20429;-70
2021/07/29 04:32:01;;;;;;;6.70;4.57;;;20.00;68.20;;;;;;5011691;28;20069;-70
2021/07/29 04:34:27;;;;;;;7.03;4.25;;;20.10;68.10;;;;;;5015267;28;20026;-70
2021/07/29 04:36:53;;;;;;;13.65;4.32;;;20.10;67.90;;;;;;5035102;28;20075;-70
2021/07/29 04:39:19;;;;;;;5.45;3.38;;;20.10;67.70;;;;;;5035622;28;20479;-71
2021/07/29 04:41:45;;;;;;;7.32;3.95;;;20.10;67.40;;;;;;5016285;28;20030;-70
2021/07/29 04:44:14;;;;;;;7.43;5.20;;;20.10;67.30;;;;;;5015664;28;20046;-71
2021/07/29 04:46:42;;;;;;;10.82;7.80;;;20.20;67.50;;;;;;5016712;28;20088;-70
2021/07/29 04:49:09;;;;;;;14.45;8.88;;;20.20;67.80;;;;;;5028974;28;20426;-70
2021/07/29 04:51:40;;;;;;;13.38;7.45;;;20.30;68.10;;;;;;5023412;28;20026;-70
2021/07/29 04:54:06;;;;;;;8.60;6.85;;;20.30;68.10;;;;;;5015587;28;20022;-70
2021/07/29 04:56:32;;;;;;;16.80;7.28;;;20.40;68.10;;;;;;5016534;28;20025;-70
2021/07/29 04:58:58;;;;;;;11.52;7.43;;;20.40;68.10;;;;;;5016656;28;20104;-70
2021/07/29 05:01:24;;;;;;;10.10;8.05;;;20.50;68.00;;;;;;5039540;28;20087;-70
2021/07/29 05:03:50;;;;;;;11.95;9.18;;;20.60;67.80;;;;;;5034462;28;20491;-70
2021/07/29 05:06:16;;;;;;;22.88;8.93;;;20.60;67.70;;;;;;5034878;28;20033;-70
2021/07/29 05:08:43;;;;;;;11.32;8.27;;;20.70;67.50;;;;;;5035091;28;20506;-70
2021/07/29 05:11:09;;;;;;;11.85;7.57;;;20.80;67.20;;;;;;5021993;28;20496;-70
2021/07/29 05:13:38;;;;;;;12.18;7.22;;;20.80;67.10;;;;;;5014156;28;20026;-70
2021/07/29 05:16:08;;;;;;;10.63;7.80;;;20.90;67.10;;;;;;5025407;28;20033;-70
2021/07/29 05:18:35;;;;;;;10.30;7.40;;;21.00;67.10;;;;;;5033895;28;20107;-70
2021/07/29 05:21:07;;;;;;;11.02;7.80;;;21.10;66.90;;;;;;5019652;28;20037;-70
2021/07/29 05:23:34;;;;;;;9.57;7.10;;;21.20;66.60;;;;;;5013618;28;20500;-70
2021/07/29 05:26:00;;;;;;;11.48;8.05;;;21.30;66.30;;;;;;5016037;28;20056;-70
2021/07/29 05:28:26;;;;;;;13.32;8.32;;;21.30;65.90;;;;;;5014731;28;20561;-70
2021/07/29 05:30:52;;;;;;;11.07;8.55;;;21.40;65.70;;;;;;5019075;28;20141;-70
2021/07/29 05:33:18;;;;;;;11.45;8.52;;;21.40;65.40;;;;;;5038232;28;20087;-71
2021/07/29 05:35:44;;;;;;;11.50;8.05;;;21.50;65.40;;;;;;5036335;28;20101;-70
2021/07/29 05:38:09;;;;;;;16.48;8.77;;;21.50;65.30;;;;;;5016042;28;20030;-70
2021/07/29 05:40:35;;;;;;;12.32;9.15;;;21.50;65.20;;;;;;5025936;28;20029;-71
2021/07/29 05:43:01;;;;;;;14.98;9.80;;;21.60;65.30;;;;;;5028082;28;20042;-70
2021/07/29 05:45:28;;;;;;;15.75;9.18;;;21.60;65.20;;;;;;5014031;28;20109;-70
2021/07/29 05:47:54;;;;;;;15.13;10.48;;;21.60;65.20;;;;;;5017121;28;20029;-70
2021/07/29 05:50:21;;;;;;;12.57;9.40;;;21.70;65.20;;;;;;5022857;28;20030;-70
2021/07/29 05:52:50;;;;;;;13.77;9.40;;;21.70;65.20;;;;;;5014749;28;20038;-70
2021/07/29 05:55:16;;;;;;;16.75;9.90;;;21.70;65.10;;;;;;5037776;28;20026;-70
2021/07/29 05:57:42;;;;;;;19.33;10.57;;;21.80;65.00;;;;;;5018538;28;20053;-70
2021/07/29 06:00:08;;;;;;;15.27;11.40;;;21.90;64.90;;;;;;5020857;28;20029;-70
2021/07/29 06:02:35;;;;;;;18.15;12.43;;;22.00;64.60;;;;;;5043346;28;20065;-70
2021/07/29 06:05:01;;;;;;;19.70;11.48;;;22.00;64.40;;;;;;5031127;28;20041;-69
2021/07/29 06:07:28;;;;;;;33.70;17.73;;;22.00;64.30;;;;;;5031423;28;20119;-69
2021/07/29 06:09:54;;;;;;;31.40;17.05;;;22.10;64.30;;;;;;5028869;28;20537;-69
2021/07/29 06:12:24;;;;;;;39.22;19.38;;;22.10;64.40;;;;;;5014696;28;20038;-69
2021/07/29 06:14:54;;;;;;;38.28;19.85;;;22.20;64.50;;;;;;5032475;28;20048;-70
2021/07/29 06:17:34;;;;;;;41.92;21.70;;;22.20;64.20;;;;;;5027046;28;20064;-70
2021/07/29 06:20:05;;;;;;;41.85;23.65;;;22.30;64.10;;;;;;5017729;28;20026;-70
2021/07/29 06:22:34;;;;;;;65.97;26.38;;;22.40;64.00;;;;;;5026142;28;20087;-70
2021/07/29 06:25:04;;;;;;;44.08;22.63;;;22.40;63.80;;;;;;5030978;28;20079;-70
2021/07/29 06:27:30;;;;;;;44.95;21.90;;;22.50;63.90;;;;;;5033355;28;20429;-70
2021/07/29 06:29:56;;;;;;;45.67;22.98;;;22.60;64.00;;;;;;5018161;28;20072;-70
2021/07/29 06:32:21;;;;;;;47.67;22.77;;;22.70;63.40;;;;;;5033616;28;20037;-69
2021/07/29 06:34:47;;;;;;;39.00;21.38;;;22.80;63.40;;;;;;5031103;28;20107;-69
2021/07/29 06:37:13;;;;;;;44.10;21.27;;;22.90;63.10;;;;;;5021918;28;20025;-69
2021/07/29 06:39:39;;;;;;;39.03;19.58;;;23.00;62.60;;;;;;5032355;28;20028;-72
2021/07/29 06:42:04;;;;;;;40.28;19.35;;;23.10;62.10;;;;;;5024840;28;20025;-70
2021/07/29 06:44:30;;;;;;;32.67;17.00;;;23.10;61.10;;;;;;5034698;28;20109;-70
2021/07/29 06:46:56;;;;;;;33.13;15.63;;;23.20;61.10;;;;;;5063245;28;20033;-70
2021/07/29 06:49:28;;;;;;;32.92;17.10;;;23.30;60.90;;;;;;5032203;28;20034;-69
2021/07/29 06:51:54;;;;;;;27.35;15.10;;;23.30;60.70;;;;;;5036256;28;20032;-70
2021/07/29 06:54:19;;;;;;;26.40;14.00;;;23.40;60.50;;;;;;5037162;28;20025;-69
2021/07/29 06:56:45;;;;;;;25.95;14.23;;;23.40;59.60;;;;;;5033064;28;20034;-69
2021/07/29 06:59:11;;;;;;;24.80;13.18;;;23.40;59.40;;;;;;5031212;28;20033;-70
2021/07/29 07:01:36;;;;;;;23.85;12.35;;;23.40;59.50;;;;;;5032204;28;20032;-70
2021/07/29 07:04:03;;;;;;;23.23;12.32;;;23.40;59.40;;;;;;5032667;28;20128;-69
2021/07/29 07:06:29;;;;;;;15.95;9.20;;;23.40;58.70;;;;;;5031064;28;20056;-70
2021/07/29 07:08:57;;;;;;;23.52;12.85;;;23.50;58.90;;;;;;5029741;28;20479;-70
2021/07/29 07:11:23;;;;;;;22.00;11.57;;;23.50;58.70;;;;;;5032431;28;20096;-70
2021/07/29 07:13:48;;;;;;;18.63;10.95;;;23.50;58.80;;;;;;5032705;28;20017;-70
2021/07/29 07:16:14;;;;;;;23.30;11.95;;;23.50;59.40;;;;;;5032090;28;20029;-71
2021/07/29 07:18:41;;;;;;;25.10;13.00;;;23.50;58.60;;;;;;5031155;28;20025;-70
2021/07/29 07:21:08;;;;;;;25.63;12.63;;;23.50;58.50;;;;;;5032186;28;20052;-70
2021/07/29 07:23:35;;;;;;;20.20;10.02;;;23.60;58.70;;;;;;5032478;28;20025;-70
2021/07/29 07:26:02;;;;;;;11.57;6.75;;;23.60;58.70;;;;;;5025304;28;20021;-70
2021/07/29 07:28:28;;;;;;;11.45;5.82;;;23.70;58.30;;;;;;5027734;28;20033;-70
2021/07/29 07:30:54;;;;;;;12.13;5.85;;;23.70;58.10;;;;;;5020117;28;20554;-70
2021/07/29 07:33:19;;;;;;;8.48;4.32;;;23.70;57.80;;;;;;5018230;28;20108;-70
2021/07/29 07:35:45;;;;;;;6.90;4.78;;;23.80;57.80;;;;;;5029344;28;20022;-71
2021/07/29 07:38:11;;;;;;;8.05;5.13;;;23.80;57.90;;;;;;5032374;28;20240;-70
2021/07/29 07:40:37;;;;;;;8.55;4.68;;;23.90;58.30;;;;;;5031000;28;20479;-70
2021/07/29 07:43:03;;;;;;;7.53;4.72;;;23.90;58.10;;;;;;5032246;28;20427;-70
2021/07/29 07:45:29;;;;;;;6.68;4.45;;;24.00;57.90;;;;;;5032314;28;20475;-71
2021/07/29 07:47:55;;;;;;;6.30;3.78;;;24.00;57.70;;;;;;5031576;28;20021;-70
2021/07/29 07:50:20;;;;;;;5.78;3.63;;;24.10;57.80;;;;;;5015781;28;20072;-70
2021/07/29 07:52:46;;;;;;;5.18;3.55;;;24.10;57.10;;;;;;5021087;28;20057;-70
2021/07/29 07:55:12;;;;;;;6.22;3.45;;;24.10;57.10;;;;;;5035856;28;20022;-70
2021/07/29 07:57:38;;;;;;;7.72;3.70;;;24.20;57.30;;;;;;5032438;28;20440;-71
2021/07/29 08:00:05;;;;;;;4.10;2.83;;;24.20;57.20;;;;;;5029696;28;20108;-70
2021/07/29 08:02:30;;;;;;;5.82;3.22;;;24.30;57.10;;;;;;5031904;28;20506;-72
2021/07/29 08:04:56;;;;;;;6.63;3.53;;;24.30;56.70;;;;;;5032175;28;20037;-70
2021/07/29 08:07:22;;;;;;;6.22;3.65;;;24.40;57.00;;;;;;5031996;28;20030;-69
2021/07/29 08:09:48;;;;;;;5.90;2.85;;;24.40;56.90;;;;;;5036030;28;20022;-70
2021/07/29 08:12:14;;;;;;;7.35;3.90;;;24.50;56.60;;;;;;5030280;28;20025;-70
2021/07/29 08:14:40;;;;;;;3.38;2.97;;;24.50;56.40;;;;;;5029089;28;20037;-70
2021/07/29 08:17:06;;;;;;;5.53;3.47;;;24.60;56.60;;;;;;5015447;28;20014;-70
2021/07/29 08:19:32;;;;;;;3.72;3.30;;;24.60;56.40;;;;;;5025952;28;20029;-70
2021/07/29 08:21:59;;;;;;;4.25;3.13;;;24.60;56.40;;;;;;5033848;28;20030;-70
2021/07/29 08:24:25;;;;;;;5.45;3.50;;;24.70;56.30;;;;;;5031881;28;20360;-70
2021/07/29 08:26:51;;;;;;;5.10;3.00;;;24.70;56.30;;;;;;5015574;28;20040;-70
2021/07/29 08:29:16;;;;;;;5.63;3.53;;;24.80;56.20;;;;;;5015144;28;20336;-69
2021/07/29 08:31:42;;;;;;;5.25;3.42;;;24.80;56.30;;;;;;5027167;28;20103;-69
2021/07/29 08:34:08;;;;;;;7.13;3.38;;;24.80;56.10;;;;;;5034175;28;20021;-70
2021/07/29 08:36:34;;;;;;;7.90;3.80;;;24.90;56.00;;;;;;5034789;28;20021;-69
2021/07/29 08:39:00;;;;;;;4.90;3.65;;;24.90;55.70;;;;;;5034793;28;20093;-70
2021/07/29 08:41:25;;;;;;;4.40;3.65;;;25.00;55.70;;;;;;5034780;28;20021;-70
2021/07/29 08:43:51;;;;;;;6.10;3.45;;;25.00;55.50;;;;;;5034661;28;20533;-69
2021/07/29 08:46:21;;;;;;;5.75;3.92;;;25.00;55.50;;;;;;5016830;28;20041;-69
2021/07/29 08:48:49;;;;;;;7.90;3.95;;;25.10;55.60;;;;;;5016032;28;20116;-69
2021/07/29 08:51:23;;;;;;;6.40;3.60;;;25.20;55.50;;;;;;5034640;28;20029;-70
2021/07/29 08:53:50;;;;;;;5.35;3.97;;;25.20;55.30;;;;;;5034754;28;20022;-69
2021/07/29 08:56:35;;;;;;;6.32;4.13;;;25.30;55.50;;;;;;5030613;28;20104;-70
2021/07/29 08:59:00;;;;;;;6.82;4.30;;;25.30;55.00;;;;;;5033467;28;20483;-69
2021/07/29 09:01:53;;;;;;;7.60;4.10;;;25.40;54.90;;;;;;5034863;28;20025;-70
2021/07/29 09:04:19;;;;;;;4.10;3.70;;;25.40;55.20;;;;;;5034107;28;20101;-69
2021/07/29 09:07:02;;;;;;;6.28;4.20;;;25.50;55.10;;;;;;5035015;28;20112;-70
2021/07/29 09:09:48;;;;;;;6.07;3.90;;;25.50;55.00;;;;;;5034419;28;20022;-69
2021/07/29 09:12:19;;;;;;;4.88;3.90;;;25.60;54.90;;;;;;5034834;28;20029;-70
2021/07/29 09:14:46;;;;;;;9.82;3.92;;;25.70;54.70;;;;;;5033087;28;20387;-70
2021/07/29 09:17:12;;;;;;;7.97;4.32;;;25.70;54.40;;;;;;5034688;28;20529;-70
2021/07/29 09:19:44;;;;;;;7.70;3.80;;;25.80;54.00;;;;;;5032383;28;20025;-70
2021/07/29 09:22:18;;;;;;;7.40;3.90;;;25.80;53.50;;;;;;5034733;28;20021;-70
2021/07/29 09:25:02;;;;;;;3.97;3.25;;;25.80;53.20;;;;;;5034763;28;20048;-71
2021/07/29 09:27:37;;;;;;;4.70;3.60;;;25.80;53.20;;;;;;5034779;28;20025;-70
2021/07/29 09:30:20;;;;;;;5.10;3.65;;;25.80;52.80;;;;;;5024227;28;20033;-70
2021/07/29 09:32:57;;;;;;;6.47;4.43;;;25.90;52.80;;;;;;5029908;28;20108;-71
2021/07/29 09:35:32;;;;;;;8.50;4.43;;;25.90;52.90;;;;;;5014963;28;20025;-70
2021/07/29 09:38:25;;;;;;;9.40;4.40;;;25.90;52.20;;;;;;5015176;28;20376;-70
2021/07/29 09:41:06;;;;;;;4.60;3.70;;;25.90;53.20;;;;;;5014510;28;20030;-71
2021/07/29 09:43:36;;;;;;;5.18;3.38;;;26.00;52.90;;;;;;5023639;28;20033;-70
2021/07/29 09:46:14;;;;;;;4.63;2.70;;;26.10;52.80;;;;;;5034381;28;20053;-70
2021/07/29 09:48:41;;;;;;;10.00;4.03;;;26.10;52.80;;;;;;5031782;28;20510;-70
2021/07/29 09:51:10;;;;;;;9.00;3.72;;;26.20;52.50;;;;;;5028049;28;20100;-70
2021/07/29 09:53:37;;;;;;;3.35;2.85;;;26.30;51.50;;;;;;5034213;28;20075;-70
2021/07/29 09:56:14;;;;;;;3.67;2.83;;;26.30;50.80;;;;;;5020902;28;20426;-70
2021/07/29 09:58:41;;;;;;;3.78;2.80;;;26.40;50.30;;;;;;5025053;28;20021;-70
2021/07/29 10:01:11;;;;;;;3.00;2.70;;;26.50;50.20;;;;;;5033899;28;20029;-70
2021/07/29 10:03:42;;;;;;;4.07;2.83;;;26.50;49.40;;;;;;5033734;28;20493;-70
2021/07/29 10:06:14;;;;;;;3.65;2.53;;;26.60;49.20;;;;;;5032060;28;20032;-70
2021/07/29 10:08:56;;;;;;;3.45;2.88;;;26.60;47.60;;;;;;5033920;28;20029;-70
2021/07/29 10:11:25;;;;;;;3.83;2.97;;;26.60;48.40;;;;;;5033720;28;20383;-70
2021/07/29 10:13:52;;;;;;;4.53;2.53;;;26.70;48.30;;;;;;5033731;28;20013;-70
2021/07/29 10:16:39;;;;;;;4.40;3.30;;;26.80;46.40;;;;;;5031226;28;20494;-69
2021/07/29 10:19:06;;;;;;;3.88;2.80;;;26.80;46.90;;;;;;5032832;28;20029;-70
2021/07/29 10:21:35;;;;;;;5.50;2.70;;;26.80;46.60;;;;;;5032039;28;20402;-72
2021/07/29 10:24:03;;;;;;;3.97;2.58;;;26.90;46.90;;;;;;5033241;28;20051;-69
2021/07/29 10:26:30;;;;;;;3.25;2.67;;;27.00;46.70;;;;;;5029187;28;20064;-70
2021/07/29 10:29:25;;;;;;;3.33;2.67;;;27.00;47.00;;;;;;5026238;28;20479;-70
2021/07/29 10:31:59;;;;;;;6.40;3.17;;;27.00;46.90;;;;;;5031695;28;20084;-69
2021/07/29 10:34:28;;;;;;;4.28;3.00;;;27.10;46.70;;;;;;5032195;28;20034;-70
2021/07/29 10:36:56;;;;;;;3.63;2.72;;;27.20;46.60;;;;;;5020259;28;20080;-70
2021/07/29 10:39:21;;;;;;;3.42;3.10;;;27.20;46.00;;;;;;5013472;28;20550;-70
2021/07/29 10:41:48;;;;;;;3.65;3.00;;;27.20;45.80;;;;;;5013326;28;20026;-70
2021/07/29 10:44:44;;;;;;;3.40;3.03;;;27.20;45.80;;;;;;5024573;28;20040;-70
2021/07/29 10:47:14;;;;;;;4.80;3.20;;;27.30;46.40;;;;;;5031930;28;20044;-71
2021/07/29 10:49:53;;;;;;;3.10;2.70;;;27.30;46.10;;;;;;5024943;28;20070;-71
2021/07/29 10:52:19;;;;;;;4.35;2.97;;;27.30;45.50;;;;;;5033095;28;20029;-71
2021/07/29 10:54:45;;;;;;;6.95;3.20;;;27.30;45.40;;;;;;5028773;28;20029;-71
2021/07/29 10:57:13;;;;;;;4.88;3.35;;;27.40;45.30;;;;;;5026668;28;20150;-70
2021/07/29 10:59:39;;;;;;;3.80;2.80;;;27.40;45.40;;;;;;5032301;28;20026;-70
2021/07/29 11:02:10;;;;;;;4.00;3.25;;;27.50;45.20;;;;;;5032014;28;20154;-70
2021/07/29 11:04:56;;;;;;;4.78;3.47;;;27.50;45.00;;;;;;5021141;28;20029;-71
2021/07/29 11:07:22;;;;;;;3.63;3.10;;;27.60;45.20;;;;;;5033066;28;20022;-71
2021/07/29 11:09:56;;;;;;;5.72;3.88;;;27.60;44.90;;;;;;5032900;28;20501;-71
2021/07/29 11:12:22;;;;;;;2.80;2.30;;;27.70;44.70;;;;;;5032785;28;20021;-70
2021/07/29 11:14:48;;;;;;;5.07;3.17;;;27.70;44.90;;;;;;5020786;28;20498;-71
2021/07/29 11:17:15;;;;;;;3.30;3.00;;;27.70;44.40;;;;;;5018048;28;20167;-71
2021/07/29 11:19:44;;;;;;;4.78;3.47;;;27.80;44.30;;;;;;5016126;28;20463;-71
2021/07/29 11:22:11;;;;;;;2.92;2.63;;;27.80;43.90;;;;;;5032719;28;20037;-71
2021/07/29 11:24:37;;;;;;;3.60;2.90;;;27.90;44.10;;;;;;5032605;28;20034;-70
2021/07/29 11:27:06;;;;;;;4.00;2.95;;;27.90;43.30;;;;;;5031796;28;20037;-70
2021/07/29 11:29:51;;;;;;;4.18;3.38;;;27.90;43.80;;;;;;5031968;28;20029;-70
2021/07/29 11:32:17;;;;;;;6.50;4.13;;;28.00;44.10;;;;;;5030449;28;20503;-69
2021/07/29 11:34:43;;;;;;;4.05;2.88;;;28.00;43.40;;;;;;5032265;28;20028;-69
2021/07/29 11:37:09;;;;;;;4.28;3.15;;;28.10;43.70;;;;;;5032189;28;20037;-70
2021/07/29 11:39:37;;;;;;;4.80;3.22;;;28.10;43.80;;;;;;5016713;28;20025;-70
2021/07/29 11:42:04;;;;;;;4.50;3.10;;;28.20;43.60;;;;;;5012200;28;20049;-71
2021/07/29 11:44:49;;;;;;;7.63;4.07;;;28.20;43.60;;;;;;5012037;28;20028;-70
2021/07/29 11:47:15;;;;;;;4.95;3.38;;;28.30;43.80;;;;;;5012315;28;20026;-71
2021/07/29 11:49:49;;;;;;;5.13;3.60;;;28.30;43.70;;;;;;5020973;28;20040;-71
2021/07/29 11:52:16;;;;;;;3.63;2.83;;;28.40;42.20;;;;;;5016807;28;20025;-71
2021/07/29 11:54:42;;;;;;;5.13;3.60;;;28.40;41.90;;;;;;5011093;28;20026;-71
2021/07/29 11:57:08;;;;;;;3.50;2.90;;;28.40;42.00;;;;;;5019713;28;20083;-71
2021/07/29 11:59:39;;;;;;;3.95;3.20;;;28.50;42.20;;;;;;5030839;28;20025;-73
2021/07/29 12:02:06;;;;;;;4.25;3.25;;;28.50;42.10;;;;;;5031954;28;20049;-71
2021/07/29 12:04:40;;;;;;;3.88;3.28;;;28.60;42.90;;;;;;5028713;28;21634;-71
2021/07/29 12:07:08;;;;;;;5.38;3.72;;;28.70;42.70;;;;;;5021201;28;20029;-71
2021/07/29 12:09:35;;;;;;;6.25;3.30;;;28.70;41.90;;;;;;5032000;28;20037;-71
2021/07/29 12:12:02;;;;;;;4.75;3.03;;;28.70;41.20;;;;;;5031340;28;20025;-71
2021/07/29 12:14:30;;;;;;;4.47;2.60;;;28.80;41.10;;;;;;5024061;28;20024;-72
2021/07/29 12:16:56;;;;;;;3.65;3.10;;;28.80;41.70;;;;;;5012242;28;20026;-72
2021/07/29 12:19:23;;;;;;;7.22;3.33;;;28.90;42.30;;;;;;5012007;28;20037;-72
2021/07/29 12:21:50;;;;;;;6.32;2.88;;;29.00;41.70;;;;;;5025064;28;20025;-70
2021/07/29 12:24:17;;;;;;;3.38;2.83;;;29.00;41.00;;;;;;5021836;28;20026;-68
2021/07/29 12:27:06;;;;;;;4.07;2.88;;;29.00;41.50;;;;;;5029357;28;20045;-70
2021/07/29 12:29:40;;;;;;;4.45;3.10;;;29.10;41.30;;;;;;5024989;28;20116;-70
2021/07/29 12:32:17;;;;;;;25.38;4.60;;;29.10;41.40;;;;;;5045801;28;20124;-71
2021/07/29 12:34:43;;;;;;;30.77;4.18;;;29.20;40.80;;;;;;5048976;28;20021;-69
2021/07/29 12:37:09;;;;;;;69.72;6.10;;;29.30;41.40;;;;;;5031607;28;20037;-69
2021/07/29 12:39:35;;;;;;;14.75;4.93;;;29.30;40.70;;;;;;5031598;28;20017;-69
2021/07/29 12:42:29;;;;;;;69.93;7.13;;;29.40;41.40;;;;;;5031638;28;20026;-70
2021/07/29 12:45:09;;;;;;;5.20;3.45;;;29.40;41.20;;;;;;5023552;28;20022;-69
2021/07/29 12:47:35;;;;;;;4.45;3.08;;;29.50;41.20;;;;;;5011737;28;20034;-69
2021/07/29 12:50:02;;;;;;;4.28;3.08;;;29.50;41.00;;;;;;5018290;28;20036;-69